sensor_id;sensor_type;location;lat;lon;timestamp;pressure;altitude;pressure_sealevel;temperature;humidity
27613;BME280;15036;48.094;-1.690;2023-06-19T00:01:40;100545.00;;;24.20;54.68
27613;BME280;15036;48.094;-1.690;2023-06-19T00:04:05;100549.72;;;24.19;54.43
27613;BME280;15036;48.094;-1.690;2023-06-19T00:06:31;100545.00;;;24.20;54.54
27613;BME280;15036;48.094;-1.690;2023-06-19T00:08:56;100549.16;;;24.22;54.47
27613;BME280;15036;48.094;-1.690;2023-06-19T00:11:21;100547.00;;;24.14;54.70
27613;BME280;15036;48.094;-1.690;2023-06-19T00:13:47;100548.78;;;24.29;54.43
27613;BME280;15036;48.094;-1.690;2023-06-19T00:16:12;100551.97;;;24.17;54.58
27613;BME280;15036;48.094;-1.690;2023-06-19T00:18:37;100566.47;;;24.19;54.69
27613;BME280;15036;48.094;-1.690;2023-06-19T00:21:06;100563.22;;;24.07;54.99
27613;BME280;15036;48.094;-1.690;2023-06-19T00:23:31;100554.31;;;24.05;55.07
27613;BME280;15036;48.094;-1.690;2023-06-19T00:25:56;100556.56;;;24.03;55.02
27613;BME280;15036;48.094;-1.690;2023-06-19T00:28:22;100554.66;;;23.98;55.00
27613;BME280;15036;48.094;-1.690;2023-06-19T00:30:47;100554.38;;;23.95;55.12
27613;BME280;15036;48.094;-1.690;2023-06-19T00:33:12;100544.91;;;23.96;55.10
27613;BME280;15036;48.094;-1.690;2023-06-19T00:35:38;100551.88;;;23.98;54.96
27613;BME280;15036;48.094;-1.690;2023-06-19T00:38:05;100555.81;;;23.92;55.13
27613;BME280;15036;48.094;-1.690;2023-06-19T00:40:32;100554.69;;;23.93;55.16
27613;BME280;15036;48.094;-1.690;2023-06-19T00:42:58;100551.41;;;23.86;55.32
27613;BME280;15036;48.094;-1.690;2023-06-19T00:45:24;100551.09;;;23.88;55.29
27613;BME280;15036;48.094;-1.690;2023-06-19T00:47:52;100556.69;;;23.88;55.17
27613;BME280;15036;48.094;-1.690;2023-06-19T00:50:18;100558.97;;;23.81;55.58
27613;BME280;15036;48.094;-1.690;2023-06-19T00:52:43;100555.59;;;23.84;55.29
27613;BME280;15036;48.094;-1.690;2023-06-19T00:55:09;100558.16;;;23.75;55.69
27613;BME280;15036;48.094;-1.690;2023-06-19T00:57:36;100556.53;;;23.74;55.72
27613;BME280;15036;48.094;-1.690;2023-06-19T01:00:02;100563.50;;;23.72;55.88
27613;BME280;15036;48.094;-1.690;2023-06-19T01:02:32;100561.84;;;23.71;56.10
27613;BME280;15036;48.094;-1.690;2023-06-19T01:04:58;100551.50;;;23.71;55.88
27613;BME280;15036;48.094;-1.690;2023-06-19T01:10:21;100570.22;;;23.66;56.09
27613;BME280;15036;48.094;-1.690;2023-06-19T01:12:56;100570.28;;;23.61;56.07
27613;BME280;15036;48.094;-1.690;2023-06-19T01:15:24;100568.31;;;23.61;56.35
27613;BME280;15036;48.094;-1.690;2023-06-19T01:17:50;100569.69;;;23.64;56.39
27613;BME280;15036;48.094;-1.690;2023-06-19T01:20:16;100584.41;;;23.69;56.28
27613;BME280;15036;48.094;-1.690;2023-06-19T01:22:41;100572.78;;;23.62;56.15
27613;BME280;15036;48.094;-1.690;2023-06-19T01:25:09;100573.94;;;23.56;56.53
27613;BME280;15036;48.094;-1.690;2023-06-19T01:27:35;100582.28;;;23.56;56.35
27613;BME280;15036;48.094;-1.690;2023-06-19T01:30:02;100581.19;;;23.52;56.72
27613;BME280;15036;48.094;-1.690;2023-06-19T01:32:39;100585.63;;;23.53;56.36
27613;BME280;15036;48.094;-1.690;2023-06-19T01:35:07;100592.66;;;23.46;56.94
27613;BME280;15036;48.094;-1.690;2023-06-19T01:37:35;100596.59;;;23.45;56.74
27613;BME280;15036;48.094;-1.690;2023-06-19T01:40:04;100597.09;;;23.52;56.94
27613;BME280;15036;48.094;-1.690;2023-06-19T01:42:31;100607.09;;;23.58;57.05
27613;BME280;15036;48.094;-1.690;2023-06-19T01:44:57;100612.03;;;23.71;56.59
27613;BME280;15036;48.094;-1.690;2023-06-19T01:47:22;100622.88;;;23.72;56.92
27613;BME280;15036;48.094;-1.690;2023-06-19T01:49:49;100611.03;;;23.90;56.27
27613;BME280;15036;48.094;-1.690;2023-06-19T01:52:14;100613.94;;;23.75;56.89
27613;BME280;15036;48.094;-1.690;2023-06-19T01:54:40;100608.66;;;23.74;56.96
27613;BME280;15036;48.094;-1.690;2023-06-19T01:57:06;100601.69;;;23.71;57.14
27613;BME280;15036;48.094;-1.690;2023-06-19T01:59:31;100598.81;;;23.86;57.01
27613;BME280;15036;48.094;-1.690;2023-06-19T02:01:57;100604.47;;;23.71;57.37
27613;BME280;15036;48.094;-1.690;2023-06-19T02:04:22;100591.59;;;23.80;57.21
27613;BME280;15036;48.094;-1.690;2023-06-19T02:06:47;100589.13;;;23.79;57.04
27613;BME280;15036;48.094;-1.690;2023-06-19T02:09:13;100593.84;;;23.78;57.26
27613;BME280;15036;48.094;-1.690;2023-06-19T02:11:38;100588.28;;;23.78;57.47
27613;BME280;15036;48.094;-1.690;2023-06-19T02:14:04;100591.59;;;23.80;57.62
27613;BME280;15036;48.094;-1.690;2023-06-19T02:16:29;100586.28;;;23.84;57.56
27613;BME280;15036;48.094;-1.690;2023-06-19T02:18:55;100579.31;;;23.81;57.35
27613;BME280;15036;48.094;-1.690;2023-06-19T02:21:21;100575.41;;;23.82;57.50
27613;BME280;15036;48.094;-1.690;2023-06-19T02:23:47;100569.25;;;23.85;57.35
27613;BME280;15036;48.094;-1.690;2023-06-19T02:26:12;100563.91;;;23.89;57.40
27613;BME280;15036;48.094;-1.690;2023-06-19T02:28:37;100561.97;;;23.89;57.20
27613;BME280;15036;48.094;-1.690;2023-06-19T02:31:03;100570.88;;;23.91;57.31
27613;BME280;15036;48.094;-1.690;2023-06-19T02:33:28;100565.84;;;23.93;57.32
27613;BME280;15036;48.094;-1.690;2023-06-19T02:35:54;100567.75;;;23.98;57.21
27613;BME280;15036;48.094;-1.690;2023-06-19T02:38:24;100564.31;;;24.11;57.03
27613;BME280;15036;48.094;-1.690;2023-06-19T02:40:50;100552.38;;;24.05;57.28
27613;BME280;15036;48.094;-1.690;2023-06-19T02:43:15;100563.53;;;24.05;57.08
27613;BME280;15036;48.094;-1.690;2023-06-19T02:45:40;100559.03;;;24.09;57.25
27613;BME280;15036;48.094;-1.690;2023-06-19T02:48:06;100558.97;;;24.15;57.21
27613;BME280;15036;48.094;-1.690;2023-06-19T02:50:31;100567.88;;;24.17;57.07
27613;BME280;15036;48.094;-1.690;2023-06-19T02:52:57;100570.78;;;24.06;57.39
27613;BME280;15036;48.094;-1.690;2023-06-19T02:55:22;100565.09;;;24.17;57.10
27613;BME280;15036;48.094;-1.690;2023-06-19T02:57:47;100563.66;;;24.24;57.07
27613;BME280;15036;48.094;-1.690;2023-06-19T03:00:13;100564.13;;;24.31;56.68
27613;BME280;15036;48.094;-1.690;2023-06-19T03:02:38;100559.41;;;24.27;57.07
27613;BME280;15036;48.094;-1.690;2023-06-19T03:05:07;100556.88;;;24.30;56.94
27613;BME280;15036;48.094;-1.690;2023-06-19T03:07:33;100566.06;;;24.31;56.95
27613;BME280;15036;48.094;-1.690;2023-06-19T03:09:58;100567.59;;;24.18;57.04
27613;BME280;15036;48.094;-1.690;2023-06-19T03:12:23;100553.75;;;24.08;57.36
27613;BME280;15036;48.094;-1.690;2023-06-19T03:14:48;100555.31;;;24.19;57.16
27613;BME280;15036;48.094;-1.690;2023-06-19T03:17:14;100558.78;;;24.06;57.41
27613;BME280;15036;48.094;-1.690;2023-06-19T03:19:39;100559.56;;;24.12;57.55
27613;BME280;15036;48.094;-1.690;2023-06-19T03:22:04;100558.16;;;24.14;57.21
27613;BME280;15036;48.094;-1.690;2023-06-19T03:24:30;100559.63;;;24.01;58.05
27613;BME280;15036;48.094;-1.690;2023-06-19T03:26:55;100568.47;;;24.14;57.72
27613;BME280;15036;48.094;-1.690;2023-06-19T03:29:21;100548.41;;;24.12;57.54
27613;BME280;15036;48.094;-1.690;2023-06-19T03:31:46;100552.56;;;24.14;57.65
27613;BME280;15036;48.094;-1.690;2023-06-19T03:34:12;100559.25;;;24.18;57.71
27613;BME280;15036;48.094;-1.690;2023-06-19T03:36:37;100558.09;;;24.19;57.67
27613;BME280;15036;48.094;-1.690;2023-06-19T03:39:03;100560.56;;;24.26;57.52
27613;BME280;15036;48.094;-1.690;2023-06-19T03:41:29;100555.84;;;24.21;57.80
27613;BME280;15036;48.094;-1.690;2023-06-19T03:43:54;100562.09;;;24.37;57.25
27613;BME280;15036;48.094;-1.690;2023-06-19T03:46:19;100551.75;;;24.14;57.80
27613;BME280;15036;48.094;-1.690;2023-06-19T03:48:45;100566.13;;;24.26;57.69
27613;BME280;15036;48.094;-1.690;2023-06-19T03:51:10;100561.19;;;24.18;58.00
27613;BME280;15036;48.094;-1.690;2023-06-19T03:53:35;100564.88;;;24.37;57.10
27613;BME280;15036;48.094;-1.690;2023-06-19T03:56:01;100559.63;;;24.06;58.15
27613;BME280;15036;48.094;-1.690;2023-06-19T03:58:26;100563.97;;;24.18;58.01
27613;BME280;15036;48.094;-1.690;2023-06-19T04:00:51;100568.19;;;24.15;58.04
27613;BME280;15036;48.094;-1.690;2023-06-19T04:03:17;100563.88;;;24.28;57.74
27613;BME280;15036;48.094;-1.690;2023-06-19T04:05:42;100565.19;;;24.35;57.63
27613;BME280;15036;48.094;-1.690;2023-06-19T04:08:08;100571.66;;;24.31;57.90
27613;BME280;15036;48.094;-1.690;2023-06-19T04:10:34;100572.81;;;24.25;57.98
27613;BME280;15036;48.094;-1.690;2023-06-19T04:12:59;100569.94;;;24.35;57.50
27613;BME280;15036;48.094;-1.690;2023-06-19T04:15:24;100573.09;;;24.28;57.83
27613;BME280;15036;48.094;-1.690;2023-06-19T04:17:50;100570.88;;;24.25;57.78
27613;BME280;15036;48.094;-1.690;2023-06-19T04:20:15;100565.59;;;24.24;57.68
27613;BME280;15036;48.094;-1.690;2023-06-19T04:22:41;100571.72;;;24.26;57.66
27613;BME280;15036;48.094;-1.690;2023-06-19T04:25:08;100561.25;;;24.13;57.96
27613;BME280;15036;48.094;-1.690;2023-06-19T04:27:34;100572.59;;;24.21;57.84
27613;BME280;15036;48.094;-1.690;2023-06-19T04:30:00;100579.03;;;24.17;57.93
27613;BME280;15036;48.094;-1.690;2023-06-19T04:32:25;100580.28;;;24.34;57.71
27613;BME280;15036;48.094;-1.690;2023-06-19T04:34:51;100582.16;;;23.76;59.24
27613;BME280;15036;48.094;-1.690;2023-06-19T04:37:16;100576.94;;;24.03;58.58
27613;BME280;15036;48.094;-1.690;2023-06-19T04:39:45;100573.81;;;24.10;58.21
27613;BME280;15036;48.094;-1.690;2023-06-19T04:42:13;100581.72;;;24.27;58.08
27613;BME280;15036;48.094;-1.690;2023-06-19T04:44:47;100577.38;;;24.16;58.35
27613;BME280;15036;48.094;-1.690;2023-06-19T04:47:13;100582.25;;;24.34;58.06
27613;BME280;15036;48.094;-1.690;2023-06-19T04:49:39;100586.66;;;24.40;57.65
27613;BME280;15036;48.094;-1.690;2023-06-19T04:52:04;100585.88;;;24.34;57.64
27613;BME280;15036;48.094;-1.690;2023-06-19T04:54:30;100581.09;;;24.35;57.56
27613;BME280;15036;48.094;-1.690;2023-06-19T04:56:57;100595.56;;;24.42;57.54
27613;BME280;15036;48.094;-1.690;2023-06-19T04:59:23;100590.41;;;24.54;57.39
27613;BME280;15036;48.094;-1.690;2023-06-19T05:01:48;100587.31;;;24.55;57.01
27613;BME280;15036;48.094;-1.690;2023-06-19T05:04:14;100582.56;;;24.56;56.82
27613;BME280;15036;48.094;-1.690;2023-06-19T05:06:39;100579.28;;;24.49;57.25
27613;BME280;15036;48.094;-1.690;2023-06-19T05:09:05;100576.69;;;24.57;57.24
27613;BME280;15036;48.094;-1.690;2023-06-19T05:11:30;100579.47;;;24.57;57.42
27613;BME280;15036;48.094;-1.690;2023-06-19T05:14:02;100581.66;;;24.60;57.27
27613;BME280;15036;48.094;-1.690;2023-06-19T05:16:28;100584.41;;;24.65;57.19
27613;BME280;15036;48.094;-1.690;2023-06-19T05:18:53;100575.13;;;24.75;56.90
27613;BME280;15036;48.094;-1.690;2023-06-19T05:21:18;100563.94;;;24.75;57.09
27613;BME280;15036;48.094;-1.690;2023-06-19T05:23:44;100565.63;;;24.76;56.94
27613;BME280;15036;48.094;-1.690;2023-06-19T05:26:12;100563.94;;;24.75;56.79
27613;BME280;15036;48.094;-1.690;2023-06-19T05:28:38;100565.78;;;24.84;56.76
27613;BME280;15036;48.094;-1.690;2023-06-19T05:31:03;100563.88;;;24.80;56.44
27613;BME280;15036;48.094;-1.690;2023-06-19T05:33:29;100561.81;;;24.90;56.37
27613;BME280;15036;48.094;-1.690;2023-06-19T05:35:55;100561.50;;;24.92;56.61
27613;BME280;15036;48.094;-1.690;2023-06-19T05:38:21;100570.50;;;24.89;56.41
27613;BME280;15036;48.094;-1.690;2023-06-19T05:40:48;100576.13;;;24.84;56.49
27613;BME280;15036;48.094;-1.690;2023-06-19T05:43:14;100579.41;;;24.91;56.30
27613;BME280;15036;48.094;-1.690;2023-06-19T05:45:39;100588.97;;;24.85;56.30
27613;BME280;15036;48.094;-1.690;2023-06-19T05:48:04;100590.03;;;24.89;56.59
27613;BME280;15036;48.094;-1.690;2023-06-19T05:50:30;100589.16;;;24.93;56.54
27613;BME280;15036;48.094;-1.690;2023-06-19T05:52:56;100583.50;;;24.99;56.20
27613;BME280;15036;48.094;-1.690;2023-06-19T05:55:21;100583.50;;;24.99;55.91
27613;BME280;15036;48.094;-1.690;2023-06-19T05:57:46;100591.25;;;25.25;55.36
27613;BME280;15036;48.094;-1.690;2023-06-19T06:00:12;100589.25;;;25.07;55.76
27613;BME280;15036;48.094;-1.690;2023-06-19T06:02:41;100591.28;;;25.02;55.56
27613;BME280;15036;48.094;-1.690;2023-06-19T06:05:06;100588.13;;;24.84;55.83
27613;BME280;15036;48.094;-1.690;2023-06-19T06:07:33;100583.59;;;24.88;55.89
27613;BME280;15036;48.094;-1.690;2023-06-19T06:09:59;100576.88;;;25.13;55.09
27613;BME280;15036;48.094;-1.690;2023-06-19T06:12:24;100573.88;;;25.28;54.57
27613;BME280;15036;48.094;-1.690;2023-06-19T06:14:50;100577.41;;;25.15;54.66
27613;BME280;15036;48.094;-1.690;2023-06-19T06:17:15;100575.06;;;25.22;54.93
27613;BME280;15036;48.094;-1.690;2023-06-19T06:19:40;100574.09;;;25.32;54.96
27613;BME280;15036;48.094;-1.690;2023-06-19T06:22:06;100586.22;;;25.46;54.47
27613;BME280;15036;48.094;-1.690;2023-06-19T06:24:31;100588.50;;;25.62;54.08
27613;BME280;15036;48.094;-1.690;2023-06-19T06:26:56;100585.63;;;25.49;54.10
27613;BME280;15036;48.094;-1.690;2023-06-19T06:29:24;100591.69;;;25.56;54.01
27613;BME280;15036;48.094;-1.690;2023-06-19T06:31:49;100593.94;;;25.54;54.29
27613;BME280;15036;48.094;-1.690;2023-06-19T06:34:18;100591.38;;;25.76;53.80
27613;BME280;15036;48.094;-1.690;2023-06-19T06:36:44;100596.50;;;25.88;53.79
27613;BME280;15036;48.094;-1.690;2023-06-19T06:39:10;100595.66;;;26.06;52.81
27613;BME280;15036;48.094;-1.690;2023-06-19T06:41:36;100595.56;;;26.11;52.98
27613;BME280;15036;48.094;-1.690;2023-06-19T06:44:01;100607.09;;;26.09;53.07
27613;BME280;15036;48.094;-1.690;2023-06-19T06:46:26;100608.63;;;26.34;52.23
27613;BME280;15036;48.094;-1.690;2023-06-19T06:48:52;100613.81;;;26.40;52.06
27613;BME280;15036;48.094;-1.690;2023-06-19T06:51:17;100606.88;;;26.38;52.03
27613;BME280;15036;48.094;-1.690;2023-06-19T06:53:42;100606.16;;;26.46;52.03
27613;BME280;15036;48.094;-1.690;2023-06-19T06:56:08;100621.25;;;26.31;52.46
27613;BME280;15036;48.094;-1.690;2023-06-19T06:58:33;100621.94;;;26.42;51.81
27613;BME280;15036;48.094;-1.690;2023-06-19T07:00:59;100619.28;;;26.64;51.78
27613;BME280;15036;48.094;-1.690;2023-06-19T07:03:24;100617.34;;;26.78;51.83
27613;BME280;15036;48.094;-1.690;2023-06-19T07:05:49;100618.09;;;26.97;51.15
27613;BME280;15036;48.094;-1.690;2023-06-19T07:08:15;100629.50;;;27.01;50.66
27613;BME280;15036;48.094;-1.690;2023-06-19T07:10:40;100630.75;;;26.95;50.67
27613;BME280;15036;48.094;-1.690;2023-06-19T07:13:06;100630.41;;;27.10;50.64
27613;BME280;15036;48.094;-1.690;2023-06-19T07:15:31;100635.75;;;27.11;50.29
27613;BME280;15036;48.094;-1.690;2023-06-19T07:17:56;100642.72;;;27.41;49.55
27613;BME280;15036;48.094;-1.690;2023-06-19T07:20:22;100640.72;;;27.55;49.42
27613;BME280;15036;48.094;-1.690;2023-06-19T07:22:50;100636.41;;;27.71;49.26
27613;BME280;15036;48.094;-1.690;2023-06-19T07:25:16;100641.91;;;27.76;48.87
27613;BME280;15036;48.094;-1.690;2023-06-19T07:27:42;100644.25;;;27.61;48.84
27613;BME280;15036;48.094;-1.690;2023-06-19T07:30:08;100637.72;;;27.87;48.31
27613;BME280;15036;48.094;-1.690;2023-06-19T07:32:34;100642.56;;;27.60;48.72
27613;BME280;15036;48.094;-1.690;2023-06-19T07:34:59;100638.69;;;27.83;48.33
27613;BME280;15036;48.094;-1.690;2023-06-19T07:37:25;100641.56;;;27.42;48.39
27613;BME280;15036;48.094;-1.690;2023-06-19T07:39:51;100630.88;;;27.80;48.51
27613;BME280;15036;48.094;-1.690;2023-06-19T07:42:18;100630.25;;;27.83;48.38
27613;BME280;15036;48.094;-1.690;2023-06-19T07:44:44;100620.31;;;27.77;48.37
27613;BME280;15036;48.094;-1.690;2023-06-19T07:47:10;100626.81;;;27.86;48.29
27613;BME280;15036;48.094;-1.690;2023-06-19T07:49:36;100623.88;;;28.04;47.86
27613;BME280;15036;48.094;-1.690;2023-06-19T07:52:02;100625.25;;;28.15;47.76
27613;BME280;15036;48.094;-1.690;2023-06-19T07:54:28;100627.56;;;28.13;47.78
27613;BME280;15036;48.094;-1.690;2023-06-19T07:56:53;100631.47;;;28.26;47.62
27613;BME280;15036;48.094;-1.690;2023-06-19T07:59:19;100637.38;;;28.47;47.32
27613;BME280;15036;48.094;-1.690;2023-06-19T08:01:45;100627.94;;;28.65;46.69
27613;BME280;15036;48.094;-1.690;2023-06-19T08:04:10;100646.13;;;28.67;46.73
27613;BME280;15036;48.094;-1.690;2023-06-19T08:06:35;100636.16;;;28.83;46.73
27613;BME280;15036;48.094;-1.690;2023-06-19T08:09:02;100632.03;;;28.89;46.18
27613;BME280;15036;48.094;-1.690;2023-06-19T08:11:27;100633.69;;;28.90;46.61
27613;BME280;15036;48.094;-1.690;2023-06-19T08:13:53;100620.94;;;29.15;46.22
27613;BME280;15036;48.094;-1.690;2023-06-19T08:16:18;100619.66;;;28.99;45.80
27613;BME280;15036;48.094;-1.690;2023-06-19T08:18:44;100624.75;;;28.88;45.90
27613;BME280;15036;48.094;-1.690;2023-06-19T08:21:10;100627.72;;;28.83;46.19
27613;BME280;15036;48.094;-1.690;2023-06-19T08:23:36;100620.81;;;28.98;45.61
27613;BME280;15036;48.094;-1.690;2023-06-19T08:26:03;100615.34;;;28.93;45.22
27613;BME280;15036;48.094;-1.690;2023-06-19T08:28:31;100616.63;;;29.18;44.93
27613;BME280;15036;48.094;-1.690;2023-06-19T08:30:56;100613.66;;;29.23;45.60
27613;BME280;15036;48.094;-1.690;2023-06-19T08:33:21;100607.44;;;29.43;44.89
27613;BME280;15036;48.094;-1.690;2023-06-19T08:35:47;100607.28;;;29.56;44.33
27613;BME280;15036;48.094;-1.690;2023-06-19T08:38:13;100599.84;;;29.69;44.20
27613;BME280;15036;48.094;-1.690;2023-06-19T08:40:38;100596.69;;;29.62;44.21
27613;BME280;15036;48.094;-1.690;2023-06-19T08:43:04;100604.69;;;29.77;43.82
27613;BME280;15036;48.094;-1.690;2023-06-19T08:45:29;100602.53;;;30.00;43.50
27613;BME280;15036;48.094;-1.690;2023-06-19T08:48:02;100602.69;;;30.03;42.77
27613;BME280;15036;48.094;-1.690;2023-06-19T08:50:33;100608.50;;;30.07;42.30
27613;BME280;15036;48.094;-1.690;2023-06-19T08:52:59;100607.00;;;30.18;42.43
27613;BME280;15036;48.094;-1.690;2023-06-19T08:55:25;100618.59;;;30.42;41.65
27613;BME280;15036;48.094;-1.690;2023-06-19T08:57:51;100609.59;;;30.57;41.51
27613;BME280;15036;48.094;-1.690;2023-06-19T09:00:27;100614.78;;;30.46;41.83
27613;BME280;15036;48.094;-1.690;2023-06-19T09:02:59;100613.75;;;30.59;41.16
27613;BME280;15036;48.094;-1.690;2023-06-19T09:05:25;100614.56;;;30.60;41.59
27613;BME280;15036;48.094;-1.690;2023-06-19T09:07:56;100613.53;;;30.73;41.36
27613;BME280;15036;48.094;-1.690;2023-06-19T09:10:22;100603.22;;;30.77;40.83
27613;BME280;15036;48.094;-1.690;2023-06-19T09:12:59;100605.72;;;30.87;40.37
27613;BME280;15036;48.094;-1.690;2023-06-19T09:15:28;100599.41;;;30.82;40.21
27613;BME280;15036;48.094;-1.690;2023-06-19T09:18:20;100614.53;;;30.86;40.04
27613;BME280;15036;48.094;-1.690;2023-06-19T09:20:45;100616.34;;;30.64;40.28
27613;BME280;15036;48.094;-1.690;2023-06-19T09:23:12;100611.16;;;30.92;40.18
27613;BME280;15036;48.094;-1.690;2023-06-19T09:25:51;100600.72;;;30.93;39.68
27613;BME280;15036;48.094;-1.690;2023-06-19T09:28:25;100604.47;;;31.05;39.92
27613;BME280;15036;48.094;-1.690;2023-06-19T09:31:02;100598.81;;;31.14;39.19
27613;BME280;15036;48.094;-1.690;2023-06-19T09:33:32;100599.72;;;30.89;39.61
27613;BME280;15036;48.094;-1.690;2023-06-19T09:35:58;100591.44;;;31.21;39.23
27613;BME280;15036;48.094;-1.690;2023-06-19T09:38:29;100595.88;;;31.31;38.56
27613;BME280;15036;48.094;-1.690;2023-06-19T09:40:57;100598.22;;;31.29;38.57
27613;BME280;15036;48.094;-1.690;2023-06-19T09:43:25;100594.06;;;31.26;38.67
27613;BME280;15036;48.094;-1.690;2023-06-19T09:45:56;100602.31;;;31.40;38.76
27613;BME280;15036;48.094;-1.690;2023-06-19T09:48:27;100607.16;;;31.39;38.32
27613;BME280;15036;48.094;-1.690;2023-06-19T09:50:58;100601.97;;;30.66;39.25
27613;BME280;15036;48.094;-1.690;2023-06-19T09:53:25;100596.75;;;30.76;39.06
27613;BME280;15036;48.094;-1.690;2023-06-19T09:55:50;100596.41;;;30.95;38.85
27613;BME280;15036;48.094;-1.690;2023-06-19T09:58:18;100598.72;;;30.93;38.85
27613;BME280;15036;48.094;-1.690;2023-06-19T10:00:44;100590.22;;;30.55;39.53
27613;BME280;15036;48.094;-1.690;2023-06-19T10:03:14;100594.72;;;30.39;39.94
27613;BME280;15036;48.094;-1.690;2023-06-19T10:05:42;100595.88;;;30.21;40.53
27613;BME280;15036;48.094;-1.690;2023-06-19T10:08:08;100593.09;;;30.30;40.38
27613;BME280;15036;48.094;-1.690;2023-06-19T10:10:34;100587.94;;;30.40;40.83
27613;BME280;15036;48.094;-1.690;2023-06-19T10:13:16;100583.63;;;30.80;40.62
27613;BME280;15036;48.094;-1.690;2023-06-19T10:15:43;100579.56;;;31.07;39.88
27613;BME280;15036;48.094;-1.690;2023-06-19T10:18:14;100580.69;;;31.44;38.93
27613;BME280;15036;48.094;-1.690;2023-06-19T10:20:42;100579.28;;;31.58;39.04
27613;BME280;15036;48.094;-1.690;2023-06-19T10:23:18;100571.41;;;32.05;37.63
27613;BME280;15036;48.094;-1.690;2023-06-19T10:25:54;100565.56;;;32.10;37.71
27613;BME280;15036;48.094;-1.690;2023-06-19T10:28:22;100563.34;;;32.16;37.98
27613;BME280;15036;48.094;-1.690;2023-06-19T10:31:05;100564.47;;;32.35;37.40
27613;BME280;15036;48.094;-1.690;2023-06-19T10:33:32;100563.69;;;32.47;37.41
27613;BME280;15036;48.094;-1.690;2023-06-19T10:35:59;100553.97;;;32.69;35.67
27613;BME280;15036;48.094;-1.690;2023-06-19T10:38:25;100557.63;;;32.81;36.11
27613;BME280;15036;48.094;-1.690;2023-06-19T10:40:51;100558.03;;;33.04;35.83
27613;BME280;15036;48.094;-1.690;2023-06-19T10:43:21;100545.84;;;32.79;36.35
27613;BME280;15036;48.094;-1.690;2023-06-19T10:45:53;100551.00;;;32.53;36.34
27613;BME280;15036;48.094;-1.690;2023-06-19T10:48:27;100556.78;;;32.69;35.84
27613;BME280;15036;48.094;-1.690;2023-06-19T10:50:56;100547.25;;;32.61;35.64
27613;BME280;15036;48.094;-1.690;2023-06-19T10:53:31;100553.97;;;32.24;35.57
27613;BME280;15036;48.094;-1.690;2023-06-19T10:56:00;100553.88;;;32.32;36.03
27613;BME280;15036;48.094;-1.690;2023-06-19T10:58:26;100538.88;;;32.65;35.41
27613;BME280;15036;48.094;-1.690;2023-06-19T11:00:52;100526.25;;;32.50;34.64
27613;BME280;15036;48.094;-1.690;2023-06-19T11:03:19;100532.63;;;32.71;34.43
27613;BME280;15036;48.094;-1.690;2023-06-19T11:05:45;100531.81;;;32.71;33.16
27613;BME280;15036;48.094;-1.690;2023-06-19T11:08:18;100528.28;;;32.62;33.88
27613;BME280;15036;48.094;-1.690;2023-06-19T11:10:43;100517.38;;;32.39;34.19
27613;BME280;15036;48.094;-1.690;2023-06-19T11:13:17;100522.84;;;32.69;34.06
27613;BME280;15036;48.094;-1.690;2023-06-19T11:15:43;100531.25;;;32.89;33.91
27613;BME280;15036;48.094;-1.690;2023-06-19T11:18:09;100522.63;;;32.62;33.47
27613;BME280;15036;48.094;-1.690;2023-06-19T11:20:48;100526.66;;;33.09;33.75
27613;BME280;15036;48.094;-1.690;2023-06-19T11:23:15;100527.13;;;32.99;33.15
27613;BME280;15036;48.094;-1.690;2023-06-19T11:25:41;100510.94;;;33.36;32.77
27613;BME280;15036;48.094;-1.690;2023-06-19T11:28:14;100519.19;;;33.41;33.35
27613;BME280;15036;48.094;-1.690;2023-06-19T11:30:40;100502.72;;;33.18;32.93
27613;BME280;15036;48.094;-1.690;2023-06-19T11:33:21;100497.19;;;33.62;32.72
27613;BME280;15036;48.094;-1.690;2023-06-19T11:35:50;100492.72;;;33.88;32.63
27613;BME280;15036;48.094;-1.690;2023-06-19T11:38:20;100483.56;;;33.79;32.75
27613;BME280;15036;48.094;-1.690;2023-06-19T11:40:46;100487.53;;;33.90;32.55
27613;BME280;15036;48.094;-1.690;2023-06-19T11:43:12;100478.47;;;33.85;32.04
27613;BME280;15036;48.094;-1.690;2023-06-19T11:45:48;100477.78;;;34.03;31.51
27613;BME280;15036;48.094;-1.690;2023-06-19T11:48:13;100463.09;;;33.86;31.34
27613;BME280;15036;48.094;-1.690;2023-06-19T11:50:39;100479.69;;;33.99;31.11
27613;BME280;15036;48.094;-1.690;2023-06-19T11:53:04;100458.91;;;33.95;31.10
27613;BME280;15036;48.094;-1.690;2023-06-19T11:55:29;100449.78;;;33.86;31.23
27613;BME280;15036;48.094;-1.690;2023-06-19T11:57:55;100443.69;;;33.72;31.29
27613;BME280;15036;48.094;-1.690;2023-06-19T12:00:20;100443.31;;;34.01;30.38
27613;BME280;15036;48.094;-1.690;2023-06-19T12:02:46;100444.00;;;34.42;30.11
27613;BME280;15036;48.094;-1.690;2023-06-19T12:05:12;100440.88;;;34.16;30.52
27613;BME280;15036;48.094;-1.690;2023-06-19T12:07:38;100438.25;;;34.69;29.81
27613;BME280;15036;48.094;-1.690;2023-06-19T12:10:03;100437.09;;;35.24;29.97
27613;BME280;15036;48.094;-1.690;2023-06-19T12:12:36;100420.59;;;35.45;28.75
27613;BME280;15036;48.094;-1.690;2023-06-19T12:15:04;100421.44;;;35.68;29.23
27613;BME280;15036;48.094;-1.690;2023-06-19T12:17:30;100425.03;;;35.27;28.31
27613;BME280;15036;48.094;-1.690;2023-06-19T12:19:55;100425.34;;;35.60;27.98
27613;BME280;15036;48.094;-1.690;2023-06-19T12:22:21;100424.94;;;36.00;27.61
27613;BME280;15036;48.094;-1.690;2023-06-19T12:24:46;100416.75;;;35.95;27.03
27613;BME280;15036;48.094;-1.690;2023-06-19T12:27:12;100414.97;;;36.10;27.34
27613;BME280;15036;48.094;-1.690;2023-06-19T12:29:37;100410.50;;;36.09;28.01
27613;BME280;15036;48.094;-1.690;2023-06-19T12:32:02;100409.41;;;36.62;27.59
27613;BME280;15036;48.094;-1.690;2023-06-19T12:34:28;100411.84;;;36.86;27.19
27613;BME280;15036;48.094;-1.690;2023-06-19T12:36:54;100389.13;;;37.19;25.87
27613;BME280;15036;48.094;-1.690;2023-06-19T12:39:20;100389.44;;;37.14;26.33
27613;BME280;15036;48.094;-1.690;2023-06-19T12:41:45;100384.19;;;37.46;25.89